Time;durP1;ratioP1;P1;durP2;ratioP2;P2;SDS_P1;SDS_P2;PMS_P1;PMS_P2;Temp;Humidity;BMP_temperature;BMP_pressure;BME280_temperature;BME280_humidity;BME280_pressure;Samples;Min_cycle;Max_cycle;Signal;HPM_P1;HPM_P2
2021/09/16 00:02:05;;;;;;;12.50;6.80;;;;;;;17.84;50.42;100786.87;117344;1185;23542;-64
2021/09/16 00:04:34;;;;;;;11.10;6.30;;;;;;;17.82;50.31;100791.36;117354;1185;23564;-64
2021/09/16 00:07:03;;;;;;;9.70;6.40;;;;;;;17.79;50.32;100795.19;117400;1183;23656;-63
2021/09/16 00:09:51;;;;;;;12.60;5.90;;;;;;;17.75;50.41;100796.75;117299;1185;23521;-63
2021/09/16 00:12:39;;;;;;;13.20;7.30;;;;;;;17.73;50.44;100794.16;117281;1186;21884;-62
2021/09/16 00:15:09;;;;;;;10.10;6.20;;;;;;;17.68;50.34;100793.09;117364;1188;21855;-62
2021/09/16 00:17:38;;;;;;;8.40;6.60;;;;;;;17.63;50.37;100795.05;117321;1181;22990;-61
2021/09/16 00:20:10;;;;;;;10.00;6.90;;;;;;;17.55;50.27;100795.14;117352;1185;21854;-62
2021/09/16 00:22:39;;;;;;;9.20;6.80;;;;;;;17.50;50.44;100798.49;117346;1185;21855;-62
2021/09/16 00:25:27;;;;;;;10.80;7.60;;;;;;;17.48;50.44;100802.46;117250;1186;21900;-62
2021/09/16 00:27:56;;;;;;;11.50;7.10;;;;;;;17.46;50.44;100799.16;117264;1185;23545;-62
2021/09/16 00:30:24;;;;;;;12.70;7.20;;;;;;;17.44;50.52;100799.80;117292;1188;21866;-62
2021/09/16 00:32:53;;;;;;;10.60;7.30;;;;;;;17.42;50.49;100797.73;117286;1184;21858;-62
2021/09/16 00:35:22;;;;;;;11.70;6.90;;;;;;;17.41;50.52;100797.94;117259;1185;23548;-62
2021/09/16 00:37:50;;;;;;;11.70;7.10;;;;;;;17.39;50.50;100799.58;117310;1184;23570;-62
2021/09/16 00:40:33;;;;;;;10.10;7.00;;;;;;;17.39;50.56;100800.13;117323;1182;23558;-62
2021/09/16 00:43:01;;;;;;;9.20;7.20;;;;;;;17.39;50.56;100798.35;117327;1185;21916;-62
2021/09/16 00:45:29;;;;;;;13.20;7.00;;;;;;;17.41;50.60;100799.00;117293;1182;23469;-62
2021/09/16 00:47:57;;;;;;;13.10;7.70;;;;;;;17.41;50.65;100800.59;117353;1184;21861;-61
2021/09/16 00:50:26;;;;;;;8.80;6.20;;;;;;;17.44;50.71;100798.92;117334;1185;21858;-61
2021/09/16 00:52:54;;;;;;;9.80;6.50;;;;;;;17.43;50.71;100795.93;117279;1183;23547;-62
2021/09/16 00:55:23;;;;;;;9.60;6.40;;;;;;;17.42;50.66;100795.61;117490;1185;23557;-62
2021/09/16 00:57:52;;;;;;;9.50;6.80;;;;;;;17.44;50.65;100790.56;117404;1184;21858;-62
2021/09/16 01:00:21;;;;;;;9.60;6.30;;;;;;;17.46;50.70;100787.48;117364;1185;21845;-62
2021/09/16 01:03:09;;;;;;;9.10;6.50;;;;;;;17.46;50.69;100788.88;117340;1185;22871;-54
2021/09/16 01:05:38;;;;;;;9.40;6.40;;;;;;;17.46;50.68;100792.27;117331;1185;21881;-61
2021/09/16 01:08:24;;;;;;;8.80;6.40;;;;;;;17.46;50.64;100791.71;117360;1185;24139;-53
2021/09/16 01:10:54;;;;;;;8.90;6.40;;;;;;;17.44;50.65;100792.30;117348;1184;21848;-54
2021/09/16 01:13:22;;;;;;;10.90;7.10;;;;;;;17.43;50.81;100789.17;117125;1187;21859;-62
2021/09/16 01:15:53;;;;;;;12.20;7.30;;;;;;;17.44;50.78;100791.60;117328;1185;23640;-62
2021/09/16 01:18:24;;;;;;;10.80;6.70;;;;;;;17.42;50.76;100783.54;117204;1186;23560;-62
2021/09/16 01:20:54;;;;;;;10.00;6.90;;;;;;;17.40;50.84;100779.70;117445;1180;22914;-62
2021/09/16 01:23:22;;;;;;;11.10;6.90;;;;;;;17.37;50.83;100783.48;117354;1185;23443;-62
2021/09/16 01:25:53;;;;;;;9.40;6.40;;;;;;;17.32;50.91;100785.28;117328;1179;23640;-62
2021/09/16 01:28:22;;;;;;;13.50;6.50;;;;;;;17.29;50.91;100784.69;117433;1185;23810;-62
2021/09/16 01:30:50;;;;;;;10.70;6.70;;;;;;;17.26;50.92;100783.02;117365;1184;23522;-62
2021/09/16 01:33:18;;;;;;;10.80;6.40;;;;;;;17.23;50.96;100780.95;117442;1182;23532;-62
2021/09/16 01:35:46;;;;;;;10.20;7.00;;;;;;;17.21;51.00;100778.56;117295;1182;24146;-62
2021/09/16 01:38:15;;;;;;;8.70;6.70;;;;;;;17.19;50.95;100779.16;117293;1185;22947;-62
2021/09/16 01:40:43;;;;;;;8.50;6.90;;;;;;;17.17;50.89;100776.05;117351;1184;22905;-62
2021/09/16 01:43:15;;;;;;;9.80;6.70;;;;;;;17.13;50.92;100769.44;117299;1184;22258;-62
2021/09/16 01:45:48;;;;;;;11.70;7.50;;;;;;;17.10;50.88;100768.10;117284;1185;23548;-62
2021/09/16 01:48:16;;;;;;;13.70;7.30;;;;;;;17.09;50.99;100769.02;117280;1185;21857;-61
2021/09/16 01:50:44;;;;;;;13.40;7.20;;;;;;;17.09;50.92;100770.09;117335;1185;21857;-62
2021/09/16 01:53:21;;;;;;;9.40;6.60;;;;;;;17.08;50.99;100770.48;117268;1182;23544;-62
2021/09/16 01:56:09;;;;;;;10.90;6.80;;;;;;;17.03;50.91;100772.21;117286;1185;22050;-62
2021/09/16 01:58:43;;;;;;;12.10;6.50;;;;;;;17.00;50.97;100772.36;117322;1185;23545;-62
2021/09/16 02:01:16;;;;;;;10.60;7.10;;;;;;;16.97;51.03;100772.10;117337;1184;23532;-62
2021/09/16 02:03:48;;;;;;;10.00;7.00;;;;;;;16.94;51.01;100774.61;117358;1184;23652;-62
2021/09/16 02:06:17;;;;;;;13.10;7.40;;;;;;;16.93;50.97;100775.73;117339;1184;23564;-62
2021/09/16 02:08:45;;;;;;;15.70;7.00;;;;;;;16.91;50.96;100775.45;117348;1185;21861;-62
2021/09/16 02:11:13;;;;;;;9.80;7.20;;;;;;;16.88;50.93;100776.58;117428;1185;21845;-62
2021/09/16 02:13:42;;;;;;;10.90;6.90;;;;;;;16.88;51.00;100772.33;117263;1188;21820;-62
2021/09/16 02:16:10;;;;;;;11.90;7.20;;;;;;;16.88;51.01;100777.30;117359;1185;21913;-62
2021/09/16 02:18:38;;;;;;;11.80;6.60;;;;;;;16.87;51.03;100777.33;117378;1185;21846;-62
2021/09/16 02:21:07;;;;;;;10.70;7.10;;;;;;;16.86;51.02;100780.04;117372;1185;23544;-63
2021/09/16 02:23:35;;;;;;;11.00;6.70;;;;;;;16.83;51.13;100783.48;117331;1182;23570;-63
2021/09/16 02:26:03;;;;;;;11.80;6.20;;;;;;;16.80;51.10;100789.93;117317;1185;21845;-63
2021/09/16 02:28:34;;;;;;;10.20;7.00;;;;;;;16.80;51.22;100789.25;117337;1185;23647;-63
2021/09/16 02:31:02;;;;;;;12.70;6.50;;;;;;;16.79;51.22;100790.86;117376;1183;22571;-63
2021/09/16 02:33:32;;;;;;;12.40;6.90;;;;;;;16.80;51.20;100790.46;117382;1185;23544;-63
2021/09/16 02:36:00;;;;;;;12.40;6.60;;;;;;;16.83;51.20;100788.45;117379;1184;22916;-63
2021/09/16 02:38:29;;;;;;;14.60;7.00;;;;;;;16.87;51.27;100786.91;117360;1185;23547;-63
2021/09/16 02:40:57;;;;;;;11.10;7.60;;;;;;;16.89;51.24;100792.52;117363;1185;23538;-63
2021/09/16 02:43:26;;;;;;;14.10;7.00;;;;;;;16.91;51.23;100787.85;117359;1185;23563;-63
2021/09/16 02:46:06;;;;;;;11.90;6.70;;;;;;;16.93;51.35;100786.55;117332;1183;23560;-63
2021/09/16 02:48:34;;;;;;;12.90;6.90;;;;;;;16.95;51.35;100786.30;117418;1185;23554;-63
2021/09/16 02:51:03;;;;;;;12.70;7.30;;;;;;;16.98;51.37;100788.55;117318;1182;23627;-55
2021/09/16 02:53:32;;;;;;;10.10;7.10;;;;;;;17.00;51.36;100784.91;117401;1184;24142;-63
2021/09/16 02:56:01;;;;;;;12.70;6.60;;;;;;;17.01;51.33;100785.77;117334;1184;23577;-63
2021/09/16 02:58:30;;;;;;;11.30;6.60;;;;;;;17.01;51.47;100783.30;117399;1184;23452;-63
2021/09/16 03:00:59;;;;;;;13.70;7.00;;;;;;;17.02;51.44;100781.49;117315;1185;21841;-63
2021/09/16 03:03:27;;;;;;;12.30;8.00;;;;;;;17.06;51.52;100781.90;117349;1185;21868;-63
2021/09/16 03:05:56;;;;;;;16.10;7.30;;;;;;;17.09;51.51;100782.86;117290;1180;23544;-63
2021/09/16 03:08:44;;;;;;;9.30;6.10;;;;;;;17.13;51.55;100784.16;117383;1185;21854;-63
2021/09/16 03:11:12;;;;;;;15.60;7.10;;;;;;;17.14;51.57;100783.78;117354;1184;21855;-63
2021/09/16 03:14:00;;;;;;;12.00;6.80;;;;;;;17.16;51.61;100788.84;117303;1180;23544;-62
2021/09/16 03:16:48;;;;;;;10.10;6.90;;;;;;;17.18;51.54;100790.19;117336;1184;21854;-62
2021/09/16 03:19:16;;;;;;;14.50;7.40;;;;;;;17.17;51.55;100791.11;117320;1185;21940;-62
2021/09/16 03:22:04;;;;;;;10.60;7.20;;;;;;;17.18;51.58;100793.58;117257;1186;21884;-54
2021/09/16 03:24:33;;;;;;;10.50;6.90;;;;;;;17.19;51.58;100792.63;117307;1182;23547;-55
2021/09/16 03:27:01;;;;;;;13.20;7.00;;;;;;;17.21;51.68;100793.84;117346;1185;21845;-54
2021/09/16 03:29:29;;;;;;;10.40;6.90;;;;;;;17.22;51.74;100794.13;117305;1185;21857;-54
2021/09/16 03:31:58;;;;;;;10.70;7.10;;;;;;;17.24;51.67;100795.98;117350;1184;23569;-55
2021/09/16 03:34:28;;;;;;;15.30;7.30;;;;;;;17.28;51.70;100791.81;117338;1185;23545;-54
2021/09/16 03:36:56;;;;;;;16.70;8.70;;;;;;;17.31;51.72;100794.52;117390;1184;22323;-62
2021/09/16 03:39:24;;;;;;;11.60;6.30;;;;;;;17.35;51.74;100792.46;117346;1182;23478;-63
2021/09/16 03:41:53;;;;;;;11.90;6.50;;;;;;;17.37;51.83;100792.57;117331;1185;21942;-62
2021/09/16 03:44:21;;;;;;;10.20;6.20;;;;;;;17.40;51.74;100795.83;117294;1185;21864;-54
2021/09/16 03:46:53;;;;;;;13.50;6.40;;;;;;;17.45;51.78;100799.01;117311;1184;23567;-62
2021/09/16 03:49:21;;;;;;;13.50;6.00;;;;;;;17.52;51.78;100801.64;117455;1185;23441;-62
2021/09/16 03:51:49;;;;;;;12.00;6.70;;;;;;;17.56;51.89;100805.94;117383;1185;23443;-63
2021/09/16 03:54:17;;;;;;;11.40;7.00;;;;;;;17.63;51.84;100802.88;117233;1186;23452;-62
2021/09/16 03:56:46;;;;;;;15.20;7.30;;;;;;;17.73;51.83;100803.22;117471;1184;21858;-62
2021/09/16 03:59:14;;;;;;;12.40;6.50;;;;;;;17.78;51.83;100809.96;117328;1188;21881;-62
2021/09/16 04:01:57;;;;;;;19.60;7.20;;;;;;;17.83;51.76;100813.15;117370;1182;23636;-62
2021/09/16 04:04:25;;;;;;;16.40;6.40;;;;;;;17.88;51.76;100812.11;117291;1185;21917;-62
2021/09/16 04:06:54;;;;;;;14.00;6.30;;;;;;;17.93;51.76;100812.44;117976;1179;23442;-62
2021/09/16 04:09:22;;;;;;;17.00;6.50;;;;;;;17.98;51.90;100807.32;117491;1182;23554;-63
2021/09/16 04:11:52;;;;;;;15.00;6.50;;;;;;;18.04;51.89;100810.33;117379;1185;22840;-62
2021/09/16 04:14:21;;;;;;;14.50;7.10;;;;;;;18.10;51.82;100812.94;117417;1185;23547;-61
2021/09/16 04:16:49;;;;;;;14.90;6.50;;;;;;;18.17;51.84;100811.26;117426;1183;23633;-63
2021/09/16 04:19:17;;;;;;;18.40;7.00;;;;;;;18.27;51.86;100809.13;117353;1179;21861;-63
2021/09/16 04:21:46;;;;;;;14.00;6.10;;;;;;;18.35;51.96;100812.20;117379;1188;21853;-63
2021/09/16 04:24:17;;;;;;;11.70;6.80;;;;;;;18.42;51.84;100820.10;117347;1185;23544;-61
2021/09/16 04:26:46;;;;;;;13.80;7.10;;;;;;;18.52;51.80;100821.85;117378;1185;23560;-65
2021/09/16 04:29:15;;;;;;;18.30;6.70;;;;;;;18.58;51.94;100822.67;118030;1185;22737;-64
2021/09/16 04:31:43;;;;;;;12.00;6.40;;;;;;;18.64;52.00;100818.39;117314;1184;23554;-65
2021/09/16 04:34:12;;;;;;;8.70;5.50;;;;;;;18.75;51.96;100819.70;117296;1186;23580;-65
2021/09/16 04:36:40;;;;;;;14.10;6.80;;;;;;;18.86;51.97;100816.45;117481;1185;23548;-65
2021/09/16 04:39:08;;;;;;;15.20;6.20;;;;;;;18.94;51.90;100819.36;117331;1182;21856;-65
2021/09/16 04:41:46;;;;;;;16.50;6.50;;;;;;;19.03;51.97;100817.92;117351;1182;23544;-65
2021/09/16 04:44:15;;;;;;;13.20;5.60;;;;;;;19.08;52.02;100820.24;117405;1185;23469;-66
2021/09/16 04:46:47;;;;;;;11.00;6.10;;;;;;;19.15;52.08;100818.68;117326;1188;21891;-65
2021/09/16 04:49:15;;;;;;;13.30;5.50;;;;;;;19.22;52.07;100810.23;117381;1181;23656;-65
2021/09/16 04:51:44;;;;;;;12.20;5.70;;;;;;;19.29;52.02;100811.89;117318;1185;21849;-66
2021/09/16 04:54:12;;;;;;;12.30;5.70;;;;;;;19.36;52.05;100810.72;117367;1185;21856;-66
2021/09/16 04:56:42;;;;;;;12.50;6.00;;;;;;;19.41;52.03;100814.04;117372;1185;21852;-66
2021/09/16 04:59:10;;;;;;;17.50;6.60;;;;;;;19.46;52.07;100813.63;117353;1185;21845;-66
2021/09/16 05:01:58;;;;;;;13.20;5.40;;;;;;;19.52;52.00;100810.20;117329;1184;21855;-55
2021/09/16 05:04:26;;;;;;;12.10;5.40;;;;;;;19.58;51.96;100812.98;117353;1185;23567;-54
2021/09/16 05:06:54;;;;;;;11.50;5.00;;;;;;;19.62;51.87;100819.23;117356;1180;23343;-56
2021/09/16 05:09:25;;;;;;;;;;;;;;;19.66;51.95;100820.66;117375;1188;23564;-55
2021/09/16 05:11:53;;;;;;;14.50;5.60;;;;;;;19.72;51.96;100824.13;117364;1184;23560;-55
2021/09/16 05:14:23;;;;;;;11.60;5.00;;;;;;;19.76;52.01;100826.43;117326;1183;23547;-55
2021/09/16 05:16:52;;;;;;;12.30;5.40;;;;;;;19.86;52.04;100827.27;117327;1182;23535;-55
2021/09/16 05:19:21;;;;;;;10.50;4.70;;;;;;;19.95;52.04;100829.23;117351;1184;22359;-55
2021/09/16 05:21:49;;;;;;;18.00;5.20;;;;;;;20.03;52.13;100832.24;117308;1185;23477;-55
2021/09/16 05:24:17;;;;;;;15.30;4.90;;;;;;;20.14;52.15;100834.77;117319;1185;23486;-55
2021/09/16 05:27:06;;;;;;;11.10;5.00;;;;;;;20.30;52.11;100830.30;117341;1185;21843;-55
2021/09/16 05:29:34;;;;;;;10.40;4.40;;;;;;;20.39;52.20;100827.95;117353;1185;23477;-55
2021/09/16 05:32:02;;;;;;;8.90;4.60;;;;;;;20.49;52.14;100825.89;117322;1185;21858;-55
2021/09/16 05:34:31;;;;;;;9.00;4.50;;;;;;;20.59;52.12;100825.75;117358;1182;23469;-55
2021/09/16 05:37:19;;;;;;;11.90;4.90;;;;;;;20.69;52.10;100821.73;117268;1186;22178;-55
2021/09/16 05:39:47;;;;;;;18.00;5.40;;;;;;;20.77;52.06;100818.35;117326;1185;22912;-55
2021/09/16 05:42:16;;;;;;;13.10;5.60;;;;;;;20.85;52.09;100818.35;117297;1184;23634;-55
2021/09/16 05:44:44;;;;;;;13.50;5.30;;;;;;;20.93;52.00;100818.10;117316;1185;21858;-54
2021/09/16 05:47:13;;;;;;;13.20;5.40;;;;;;;21.06;51.98;100821.97;117313;1182;23644;-55
2021/09/16 05:49:41;;;;;;;11.10;5.00;;;;;;;21.17;51.93;100827.49;117493;1184;23561;-55
2021/09/16 05:52:11;;;;;;;10.60;4.60;;;;;;;21.29;52.04;100827.05;117381;1185;24711;-54
2021/09/16 05:54:40;;;;;;;10.30;5.50;;;;;;;21.48;52.24;100827.91;117373;1180;24006;-55
2021/09/16 05:57:08;;;;;;;10.90;4.70;;;;;;;21.66;52.31;100828.98;117352;1185;23548;-55
2021/09/16 05:59:39;;;;;;;9.30;5.10;;;;;;;21.88;52.38;100827.50;117263;1186;23550;-55
2021/09/16 06:02:08;;;;;;;10.70;5.00;;;;;;;22.16;52.24;100824.77;117301;1182;23651;-55
2021/09/16 06:04:36;;;;;;;11.00;4.90;;;;;;;22.41;52.26;100822.20;117393;1185;23583;-55
2021/09/16 06:07:05;;;;;;;16.90;5.10;;;;;;;22.64;52.43;100823.80;117426;1182;23541;-55
2021/09/16 06:09:33;;;;;;;8.80;4.50;;;;;;;22.84;52.24;100822.86;117501;1182;23566;-55
2021/09/16 06:12:04;;;;;;;10.80;5.50;;;;;;;23.00;52.22;100825.38;117358;1186;21864;-55
2021/09/16 06:14:36;;;;;;;12.30;5.60;;;;;;;23.16;52.26;100822.13;117319;1182;23547;-55
2021/09/16 06:17:05;;;;;;;9.80;4.60;;;;;;;23.35;52.11;100818.89;117320;1185;21862;-55
2021/09/16 06:19:33;;;;;;;8.80;4.00;;;;;;;23.57;52.15;100818.31;117346;1185;21909;-55
2021/09/16 06:22:03;;;;;;;9.90;5.00;;;;;;;23.78;52.38;100822.42;117361;1180;23567;-55
2021/09/16 06:24:31;;;;;;;12.50;5.00;;;;;;;23.98;52.50;100823.04;117340;1185;24152;-55
2021/09/16 06:26:59;;;;;;;11.70;5.10;;;;;;;24.18;52.37;100825.02;117343;1182;23550;-55
2021/09/16 06:29:28;;;;;;;11.30;4.20;;;;;;;24.32;52.38;100826.33;117574;1184;22648;-55
2021/09/16 06:31:56;;;;;;;6.60;4.40;;;;;;;24.49;52.34;100825.04;117324;1185;23305;-57
2021/09/16 06:34:25;;;;;;;9.30;5.30;;;;;;;24.66;52.39;100823.59;117424;1185;23570;-55
2021/09/16 06:36:53;;;;;;;10.10;4.70;;;;;;;24.88;52.39;100821.31;117365;1185;21857;-55
2021/09/16 06:39:22;;;;;;;9.40;4.20;;;;;;;25.11;52.38;100821.46;117323;1186;23547;-55
2021/09/16 06:41:52;;;;;;;10.10;4.20;;;;;;;25.34;52.28;100824.60;117302;1185;23538;-55
2021/09/16 06:44:21;;;;;;;7.70;3.80;;;;;;;25.52;52.19;100825.37;117402;1185;23579;-54
2021/09/16 06:46:59;;;;;;;7.50;3.50;;;;;;;25.68;52.04;100829.89;117402;1183;23545;-55
2021/09/16 06:49:29;;;;;;;8.80;3.30;;;;;;;25.81;51.89;100831.33;117433;1185;23570;-54
2021/09/16 06:51:57;;;;;;;6.40;3.10;;;;;;;25.89;51.67;100839.39;117405;1184;21963;-54
2021/09/16 06:54:26;;;;;;;7.00;3.40;;;;;;;25.92;51.52;100840.44;117393;1185;23545;-54
2021/09/16 06:56:55;;;;;;;11.00;3.50;;;;;;;25.90;51.36;100839.89;117335;1185;23582;-54
2021/09/16 06:59:23;;;;;;;12.50;3.50;;;;;;;25.85;51.26;100840.91;117349;1185;23589;-55
2021/09/16 07:01:51;;;;;;;9.10;3.20;;;;;;;25.81;51.30;100839.21;117378;1185;21855;-54
2021/09/16 07:04:20;;;;;;;8.40;3.50;;;;;;;25.78;51.37;100840.52;117361;1185;23566;-55
2021/09/16 07:06:48;;;;;;;9.90;3.50;;;;;;;25.78;51.32;100838.33;117361;1185;23634;-69
2021/09/16 07:09:17;;;;;;;9.40;3.50;;;;;;;25.76;51.19;100838.70;117361;1183;23545;-69
2021/09/16 07:11:47;;;;;;;7.80;3.80;;;;;;;25.73;51.22;100843.37;117349;1184;23996;-69
2021/09/16 07:14:16;;;;;;;8.80;2.90;;;;;;;25.74;51.31;100843.46;117329;1185;23576;-76
2021/09/16 07:16:44;;;;;;;7.50;3.10;;;;;;;25.83;51.41;100845.36;117318;1185;22821;-80
2021/09/16 07:19:12;;;;;;;7.30;2.90;;;;;;;25.99;51.62;100846.98;117335;1185;23569;-69
2021/09/16 07:21:41;;;;;;;13.00;3.80;;;;;;;26.21;51.65;100844.89;117372;1185;23557;-68
2021/09/16 07:24:09;;;;;;;7.20;3.30;;;;;;;26.44;51.62;100844.91;117374;1185;24152;-70
2021/09/16 07:26:37;;;;;;;5.90;3.10;;;;;;;26.68;51.68;100849.82;117365;1185;22182;-69
2021/09/16 07:29:07;;;;;;;6.40;3.00;;;;;;;26.95;51.69;100849.52;117324;1184;23567;-71
2021/09/16 07:31:55;;;;;;;12.60;4.70;;;;;;;27.22;51.69;100847.55;117340;1185;22093;-80
2021/09/16 07:34:23;;;;;;;10.50;3.40;;;;;;;27.47;51.50;100851.43;117262;1185;23478;-69
2021/09/16 07:36:52;;;;;;;14.20;4.30;;;;;;;27.67;51.19;100849.92;117322;1182;23548;-68
2021/09/16 07:39:21;;;;;;;11.30;4.10;;;;;;;27.84;51.18;100851.52;117343;1185;23548;-66
2021/09/16 07:41:51;;;;;;;8.00;3.70;;;;;;;28.04;51.24;100855.53;117443;1185;21857;-77
2021/09/16 07:44:19;;;;;;;7.40;3.90;;;;;;;28.25;51.21;100852.08;117263;1186;22452;-69
2021/09/16 07:46:47;;;;;;;7.40;4.30;;;;;;;28.47;51.04;100849.44;117341;1185;23545;-68
2021/09/16 07:49:28;;;;;;;7.40;3.90;;;;;;;28.67;50.84;100848.95;117303;1184;22916;-66
2021/09/16 07:51:56;;;;;;;7.10;3.60;;;;;;;28.78;50.94;100849.67;117393;1186;23547;-66
2021/09/16 07:54:25;;;;;;;7.90;3.70;;;;;;;28.84;50.83;100851.02;117357;1185;23548;-67
2021/09/16 07:56:53;;;;;;;8.90;3.90;;;;;;;28.88;50.55;100853.23;117374;1185;23560;-67
2021/09/16 07:59:21;;;;;;;6.00;3.90;;;;;;;28.90;50.63;100851.83;117384;1183;21856;-66
2021/09/16 08:01:50;;;;;;;8.80;4.00;;;;;;;28.94;50.76;100851.83;117363;1185;23544;-69
2021/09/16 08:04:18;;;;;;;6.80;3.50;;;;;;;29.02;50.92;100851.70;117311;1185;23564;-68
2021/09/16 08:06:46;;;;;;;6.90;3.70;;;;;;;29.15;50.88;100855.54;117328;1185;23453;-69
2021/09/16 08:09:14;;;;;;;8.80;3.50;;;;;;;29.29;50.88;100850.22;117392;1185;23558;-71
2021/09/16 08:11:42;;;;;;;4.90;2.90;;;;;;;29.40;50.72;100848.42;117228;1186;22919;-79
2021/09/16 08:14:12;;;;;;;5.00;3.40;;;;;;;29.54;50.82;100845.80;117239;1183;23743;-71
2021/09/16 08:16:41;;;;;;;8.20;2.70;;;;;;;29.70;50.50;100840.39;117310;1186;22645;-74
2021/09/16 08:19:10;;;;;;;4.80;2.90;;;;;;;29.80;50.24;100846.09;117511;1182;21856;-69
2021/09/16 08:21:38;;;;;;;4.90;2.80;;;;;;;29.85;50.04;100841.82;117328;1185;21858;-67
2021/09/16 08:24:07;;;;;;;6.80;3.20;;;;;;;29.88;49.94;100839.77;117251;1186;23560;-71
2021/09/16 08:26:35;;;;;;;4.80;2.50;;;;;;;29.94;50.11;100838.17;117313;1185;23548;-77
2021/09/16 08:29:04;;;;;;;4.50;2.70;;;;;;;30.08;50.20;100836.98;117416;1185;21854;-68
2021/09/16 08:31:36;;;;;;;7.40;2.80;;;;;;;30.19;50.37;100837.52;117366;1182;23548;-68
2021/09/16 08:34:04;;;;;;;5.30;2.80;;;;;;;30.23;50.39;100833.19;117333;1183;21848;-70
2021/09/16 08:36:32;;;;;;;7.40;2.90;;;;;;;30.32;50.52;100830.94;117300;1182;21921;-77
2021/09/16 08:39:00;;;;;;;6.70;3.50;;;;;;;30.39;50.44;100829.80;117463;1185;21858;-71
2021/09/16 08:41:29;;;;;;;8.40;3.00;;;;;;;30.48;50.37;100827.85;117302;1186;21859;-70
2021/09/16 08:43:58;;;;;;;6.40;3.20;;;;;;;30.52;50.07;100827.86;117299;1186;23572;-68
2021/09/16 08:46:29;;;;;;;4.60;2.90;;;;;;;30.52;50.00;100822.11;117285;1186;23548;-73
2021/09/16 08:48:57;;;;;;;4.50;3.10;;;;;;;30.53;50.15;100822.52;117271;1185;24232;-68
2021/09/16 08:51:39;;;;;;;7.50;2.80;;;;;;;30.60;50.24;100823.79;117303;1185;23650;-67
2021/09/16 08:54:10;;;;;;;5.60;2.50;;;;;;;30.72;50.18;100821.08;117419;1185;23566;-68
2021/09/16 08:56:39;;;;;;;5.40;2.30;;;;;;;30.82;50.03;100821.19;117389;1184;21860;-67
2021/09/16 08:59:08;;;;;;;7.70;2.50;;;;;;;30.88;49.84;100816.73;117342;1185;22961;-68
2021/09/16 09:01:36;;;;;;;8.30;2.60;;;;;;;30.88;49.66;100813.31;117307;1185;22646;-66
2021/09/16 09:04:06;;;;;;;;;;;;;;;30.86;49.47;100815.04;117355;1185;21847;-68
2021/09/16 09:06:38;;;;;;;4.50;2.50;;;;;;;30.82;49.41;100817.44;117341;1182;23557;-68
2021/09/16 09:09:12;;;;;;;4.80;2.30;;;;;;;30.80;49.35;100814.29;117314;1185;23545;-69
2021/09/16 09:11:50;;;;;;;5.00;2.50;;;;;;;30.87;49.60;100811.73;117390;1186;23621;-69
2021/09/16 09:14:21;;;;;;;5.20;2.70;;;;;;;31.06;49.88;100807.64;117344;1185;22952;-69
2021/09/16 09:16:50;;;;;;;4.90;2.40;;;;;;;31.24;49.83;100808.35;117301;1186;21879;-71
2021/09/16 09:19:23;;;;;;;7.00;2.80;;;;;;;31.39;49.84;100812.92;117326;1185;21854;-68
2021/09/16 09:21:51;;;;;;;4.90;2.40;;;;;;;31.49;49.67;100813.59;117366;1185;21855;-68
2021/09/16 09:24:41;;;;;;;12.00;3.10;;;;;;;31.57;49.55;100815.59;117166;1186;23572;-72
2021/09/16 09:27:21;;;;;;;8.50;3.00;;;;;;;31.68;49.51;100810.08;117353;1176;23664;-72
2021/09/16 09:30:11;;;;;;;6.70;2.60;;;;;;;31.70;49.28;100810.31;118480;1185;21866;-73
2021/09/16 09:32:55;;;;;;;8.80;2.60;;;;;;;31.70;49.24;100807.46;117604;1176;21865;-68
2021/09/16 09:35:24;;;;;;;6.90;2.50;;;;;;;31.68;49.18;100805.84;117422;1185;22915;-69
2021/09/16 09:37:52;;;;;;;5.80;2.40;;;;;;;31.66;49.20;100803.83;117353;1183;23548;-70
2021/09/16 09:40:33;;;;;;;9.70;2.60;;;;;;;31.73;49.36;100804.52;117385;1186;23547;-75
2021/09/16 09:43:18;;;;;;;4.70;2.10;;;;;;;31.84;49.39;100808.55;117288;1181;22914;-70
2021/09/16 09:46:09;;;;;;;4.90;2.40;;;;;;;31.99;49.45;100810.05;117347;1185;23545;-68
2021/09/16 09:48:57;;;;;;;4.40;2.50;;;;;;;32.13;49.31;100808.27;117341;1185;22158;-67
2021/09/16 09:51:48;;;;;;;4.80;2.40;;;;;;;32.33;49.28;100806.42;117319;1185;21845;-70
2021/09/16 09:54:23;;;;;;;6.20;2.50;;;;;;;32.51;49.34;100803.74;117452;1185;21866;-69
2021/09/16 09:57:06;;;;;;;4.20;2.40;;;;;;;32.68;49.26;100804.78;117282;1186;23545;-70
2021/09/16 10:00:01;;;;;;;5.30;2.40;;;;;;;32.82;49.20;100803.08;117374;1184;23268;-69
2021/09/16 10:02:42;;;;;;;5.50;3.20;;;;;;;33.09;49.19;100799.67;117377;1185;21900;-68
2021/09/16 10:05:21;;;;;;;4.70;2.40;;;;;;;33.31;49.25;100801.15;117367;1185;21843;-68
2021/09/16 10:07:51;;;;;;;5.60;2.40;;;;;;;33.51;49.25;100801.23;117345;1182;23548;-72
2021/09/16 10:10:19;;;;;;;5.30;2.60;;;;;;;33.72;49.28;100801.20;117344;1185;21859;-71
2021/09/16 10:12:51;;;;;;;5.20;2.70;;;;;;;33.94;49.38;100801.45;117336;1185;23548;-69
2021/09/16 10:15:21;;;;;;;5.80;2.30;;;;;;;34.26;49.27;100801.27;117400;1185;23624;-67
2021/09/16 10:18:10;;;;;;;3.50;2.20;;;;;;;34.61;49.37;100802.63;117374;1184;22850;-68
2021/09/16 10:20:38;;;;;;;6.50;2.70;;;;;;;34.84;49.23;100801.04;117337;1182;23558;-67
2021/09/16 10:23:08;;;;;;;10.80;3.20;;;;;;;35.01;49.07;100798.67;117345;1183;23538;-69
2021/09/16 10:25:46;;;;;;;4.30;2.30;;;;;;;35.18;49.03;100794.52;117353;1179;23455;-67
2021/09/16 10:28:14;;;;;;;4.30;2.30;;;;;;;35.36;49.00;100794.05;117369;1186;21873;-67
2021/09/16 10:30:50;;;;;;;5.50;2.50;;;;;;;35.56;49.17;100793.85;117367;1185;21848;-70
2021/09/16 10:33:23;;;;;;;6.80;2.70;;;;;;;35.82;49.02;100788.26;117491;1186;22913;-67
2021/09/16 10:35:57;;;;;;;6.30;2.70;;;;;;;36.02;49.00;100786.78;117326;1185;21871;-73
2021/09/16 10:38:42;;;;;;;4.50;2.50;;;;;;;36.12;48.83;100784.86;117334;1186;21889;-70
2021/09/16 10:41:14;;;;;;;4.00;2.40;;;;;;;36.34;48.77;100779.45;117286;1183;22597;-70
2021/09/16 10:43:45;;;;;;;6.90;2.70;;;;;;;36.51;48.67;100774.35;117329;1182;23551;-71
2021/09/16 10:46:28;;;;;;;3.80;2.70;;;;;;;36.66;48.60;100775.73;117327;1185;22006;-68
2021/09/16 10:48:57;;;;;;;5.30;2.70;;;;;;;36.77;48.61;100775.04;117433;1180;23569;-69
2021/09/16 10:51:40;;;;;;;5.30;3.00;;;;;;;36.83;48.59;100774.79;117416;1183;23550;-68
2021/09/16 10:54:23;;;;;;;6.60;3.40;;;;;;;36.74;48.11;100771.48;117343;1188;21865;-69
2021/09/16 10:57:01;;;;;;;7.90;3.00;;;;;;;36.48;48.02;100772.11;117255;1186;21866;-69
2021/09/16 10:59:50;;;;;;;6.30;3.40;;;;;;;36.38;48.14;100771.17;117498;1185;23547;-68
2021/09/16 11:02:22;;;;;;;8.60;2.90;;;;;;;36.32;48.03;100767.58;117322;1184;23729;-66
2021/09/16 11:04:54;;;;;;;6.50;2.90;;;;;;;36.36;48.18;100765.13;117373;1185;22743;-68
2021/09/16 11:07:31;;;;;;;7.90;3.00;;;;;;;36.48;48.16;100766.10;117294;1183;21855;-68
2021/09/16 11:10:21;;;;;;;7.30;3.40;;;;;;;36.59;48.04;100768.38;117361;1185;21848;-68
2021/09/16 11:12:56;;;;;;;7.40;3.20;;;;;;;36.59;48.04;100770.33;117327;1186;21857;-66
2021/09/16 11:15:24;;;;;;;5.00;3.10;;;;;;;36.51;47.58;100765.20;117392;1180;23593;-66
2021/09/16 11:18:06;;;;;;;6.80;3.10;;;;;;;36.37;47.26;100765.77;117333;1185;21858;-67
2021/09/16 11:20:35;;;;;;;9.40;3.10;;;;;;;36.23;47.22;100764.60;117376;1182;23548;-67
2021/09/16 11:23:42;;;;;;;11.50;3.60;;;;;;;36.16;47.34;100759.62;117313;1182;21884;-67
2021/09/16 11:26:16;;;;;;;8.20;3.80;;;;;;;36.00;47.49;100757.37;117247;1186;23570;-68
2021/09/16 11:28:55;;;;;;;10.60;3.70;;;;;;;35.92;47.55;100756.66;117344;1185;22087;-66
2021/09/16 11:31:24;;;;;;;5.70;3.30;;;;;;;35.92;47.44;100756.26;117285;1186;23471;-66
2021/09/16 11:34:15;;;;;;;10.60;3.90;;;;;;;35.80;47.27;100749.38;117267;1184;22927;-66
2021/09/16 11:37:03;;;;;;;9.80;3.80;;;;;;;35.51;46.74;100739.33;117438;1185;23466;-66